sensor_id;sensor_type;location;lat;lon;timestamp;P1;durP1;ratioP1;P2;durP2;ratioP2
5125;SDS011;63008;53.112;8.896;2023-03-12T00:00:51;4.33;;;2.30;;
5125;SDS011;63008;53.112;8.896;2023-03-12T00:02:52;5.63;;;2.20;;
5125;SDS011;63008;53.112;8.896;2023-03-12T00:04:55;4.50;;;2.03;;
5125;SDS011;63008;53.112;8.896;2023-03-12T00:06:56;6.10;;;2.53;;
5125;SDS011;63008;53.112;8.896;2023-03-12T00:08:57;2.43;;;2.23;;
5125;SDS011;63008;53.112;8.896;2023-03-12T00:11:04;5.73;;;2.17;;
5125;SDS011;63008;53.112;8.896;2023-03-12T00:13:07;3.70;;;2.07;;
5125;SDS011;63008;53.112;8.896;2023-03-12T00:15:08;4.30;;;2.03;;
5125;SDS011;63008;53.112;8.896;2023-03-12T00:17:09;6.40;;;1.83;;
5125;SDS011;63008;53.112;8.896;2023-03-12T00:19:11;9.87;;;2.73;;
5125;SDS011;63008;53.112;8.896;2023-03-12T00:21:12;5.30;;;2.97;;
5125;SDS011;63008;53.112;8.896;2023-03-12T00:23:13;2.60;;;2.30;;
5125;SDS011;63008;53.112;8.896;2023-03-12T00:25:15;5.47;;;2.40;;
5125;SDS011;63008;53.112;8.896;2023-03-12T00:27:16;5.80;;;2.63;;
5125;SDS011;63008;53.112;8.896;2023-03-12T00:29:17;4.23;;;2.17;;
5125;SDS011;63008;53.112;8.896;2023-03-12T00:31:19;6.00;;;2.30;;
5125;SDS011;63008;53.112;8.896;2023-03-12T00:33:29;6.10;;;2.30;;
5125;SDS011;63008;53.112;8.896;2023-03-12T00:35:30;7.50;;;2.37;;
5125;SDS011;63008;53.112;8.896;2023-03-12T00:37:32;7.47;;;3.00;;
5125;SDS011;63008;53.112;8.896;2023-03-12T00:39:33;3.80;;;2.33;;
5125;SDS011;63008;53.112;8.896;2023-03-12T00:41:34;8.17;;;3.30;;
5125;SDS011;63008;53.112;8.896;2023-03-12T00:43:35;4.77;;;2.40;;
5125;SDS011;63008;53.112;8.896;2023-03-12T00:45:36;4.03;;;2.10;;
5125;SDS011;63008;53.112;8.896;2023-03-12T00:47:37;4.90;;;2.30;;
5125;SDS011;63008;53.112;8.896;2023-03-12T00:49:38;3.80;;;2.07;;
5125;SDS011;63008;53.112;8.896;2023-03-12T00:51:39;2.87;;;2.13;;
5125;SDS011;63008;53.112;8.896;2023-03-12T00:53:40;6.77;;;2.57;;
5125;SDS011;63008;53.112;8.896;2023-03-12T00:55:41;2.43;;;2.20;;
5125;SDS011;63008;53.112;8.896;2023-03-12T00:57:42;2.30;;;1.90;;
5125;SDS011;63008;53.112;8.896;2023-03-12T00:59:43;4.63;;;2.40;;
5125;SDS011;63008;53.112;8.896;2023-03-12T01:01:44;6.40;;;2.83;;
5125;SDS011;63008;53.112;8.896;2023-03-12T01:03:45;6.70;;;2.50;;
5125;SDS011;63008;53.112;8.896;2023-03-12T01:05:46;6.57;;;2.40;;
5125;SDS011;63008;53.112;8.896;2023-03-12T01:07:53;6.37;;;2.87;;
5125;SDS011;63008;53.112;8.896;2023-03-12T01:09:54;4.53;;;2.90;;
5125;SDS011;63008;53.112;8.896;2023-03-12T01:11:55;6.50;;;2.60;;
5125;SDS011;63008;53.112;8.896;2023-03-12T01:13:56;9.40;;;3.03;;
5125;SDS011;63008;53.112;8.896;2023-03-12T01:15:57;4.10;;;2.83;;
5125;SDS011;63008;53.112;8.896;2023-03-12T01:17:58;4.87;;;2.90;;
5125;SDS011;63008;53.112;8.896;2023-03-12T01:19:59;5.60;;;2.63;;
5125;SDS011;63008;53.112;8.896;2023-03-12T01:22:00;5.00;;;2.40;;
5125;SDS011;63008;53.112;8.896;2023-03-12T01:24:01;4.53;;;2.50;;
5125;SDS011;63008;53.112;8.896;2023-03-12T01:26:02;3.47;;;2.20;;
5125;SDS011;63008;53.112;8.896;2023-03-12T01:28:03;11.13;;;3.60;;
5125;SDS011;63008;53.112;8.896;2023-03-12T01:30:07;4.93;;;2.63;;
5125;SDS011;63008;53.112;8.896;2023-03-12T01:32:09;4.67;;;2.50;;
5125;SDS011;63008;53.112;8.896;2023-03-12T01:34:10;3.57;;;2.37;;
5125;SDS011;63008;53.112;8.896;2023-03-12T01:36:14;3.00;;;2.27;;
5125;SDS011;63008;53.112;8.896;2023-03-12T01:38:27;11.00;;;2.60;;
5125;SDS011;63008;53.112;8.896;2023-03-12T01:40:28;3.10;;;2.47;;
5125;SDS011;63008;53.112;8.896;2023-03-12T01:42:32;4.60;;;2.80;;
5125;SDS011;63008;53.112;8.896;2023-03-12T01:46:57;7.63;;;3.10;;
5125;SDS011;63008;53.112;8.896;2023-03-12T01:49:00;4.30;;;2.30;;
5125;SDS011;63008;53.112;8.896;2023-03-12T01:51:02;5.87;;;3.27;;
5125;SDS011;63008;53.112;8.896;2023-03-12T01:53:04;4.67;;;2.67;;
5125;SDS011;63008;53.112;8.896;2023-03-12T01:57:11;8.00;;;3.47;;
5125;SDS011;63008;53.112;8.896;2023-03-12T01:59:19;3.90;;;3.03;;
5125;SDS011;63008;53.112;8.896;2023-03-12T02:01:24;8.57;;;3.30;;
5125;SDS011;63008;53.112;8.896;2023-03-12T02:03:27;5.53;;;3.07;;
5125;SDS011;63008;53.112;8.896;2023-03-12T02:07:42;12.60;;;3.70;;
5125;SDS011;63008;53.112;8.896;2023-03-12T02:09:47;6.63;;;3.53;;
5125;SDS011;63008;53.112;8.896;2023-03-12T02:11:48;8.30;;;3.53;;
5125;SDS011;63008;53.112;8.896;2023-03-12T02:13:49;3.93;;;3.20;;
5125;SDS011;63008;53.112;8.896;2023-03-12T02:15:50;6.30;;;3.87;;
5125;SDS011;63008;53.112;8.896;2023-03-12T02:17:51;3.97;;;3.60;;
5125;SDS011;63008;53.112;8.896;2023-03-12T02:19:56;4.97;;;4.23;;
5125;SDS011;63008;53.112;8.896;2023-03-12T02:22:08;3.67;;;3.10;;
5125;SDS011;63008;53.112;8.896;2023-03-12T02:26:40;5.97;;;3.70;;
5125;SDS011;63008;53.112;8.896;2023-03-12T02:28:47;14.83;;;4.27;;
5125;SDS011;63008;53.112;8.896;2023-03-12T02:30:50;4.90;;;3.23;;
5125;SDS011;63008;53.112;8.896;2023-03-12T02:32:53;6.63;;;3.57;;
5125;SDS011;63008;53.112;8.896;2023-03-12T02:34:55;4.47;;;3.90;;
5125;SDS011;63008;53.112;8.896;2023-03-12T02:36:57;4.30;;;3.90;;
5125;SDS011;63008;53.112;8.896;2023-03-12T02:38:58;8.47;;;4.10;;
5125;SDS011;63008;53.112;8.896;2023-03-12T02:40:59;6.77;;;4.30;;
5125;SDS011;63008;53.112;8.896;2023-03-12T02:43:04;6.50;;;3.77;;
5125;SDS011;63008;53.112;8.896;2023-03-12T02:45:06;4.93;;;3.90;;
5125;SDS011;63008;53.112;8.896;2023-03-12T02:47:07;11.07;;;5.03;;
5125;SDS011;63008;53.112;8.896;2023-03-12T02:49:08;6.93;;;4.40;;
5125;SDS011;63008;53.112;8.896;2023-03-12T02:51:12;5.83;;;5.13;;
5125;SDS011;63008;53.112;8.896;2023-03-12T02:53:13;16.40;;;4.47;;
5125;SDS011;63008;53.112;8.896;2023-03-12T02:55:14;6.67;;;4.77;;
5125;SDS011;63008;53.112;8.896;2023-03-12T02:57:15;8.00;;;3.80;;
5125;SDS011;63008;53.112;8.896;2023-03-12T02:59:16;8.60;;;3.90;;
5125;SDS011;63008;53.112;8.896;2023-03-12T03:01:20;10.57;;;4.13;;
5125;SDS011;63008;53.112;8.896;2023-03-12T03:03:21;9.60;;;3.90;;
5125;SDS011;63008;53.112;8.896;2023-03-12T03:05:22;8.70;;;4.07;;
5125;SDS011;63008;53.112;8.896;2023-03-12T03:07:23;4.87;;;3.40;;
5125;SDS011;63008;53.112;8.896;2023-03-12T03:09:24;6.93;;;3.13;;
5125;SDS011;63008;53.112;8.896;2023-03-12T03:11:25;4.73;;;3.70;;
5125;SDS011;63008;53.112;8.896;2023-03-12T03:13:26;4.50;;;3.03;;
5125;SDS011;63008;53.112;8.896;2023-03-12T03:15:27;5.03;;;2.97;;
5125;SDS011;63008;53.112;8.896;2023-03-12T03:17:28;10.73;;;3.40;;
5125;SDS011;63008;53.112;8.896;2023-03-12T03:19:32;6.40;;;3.60;;
5125;SDS011;63008;53.112;8.896;2023-03-12T03:21:33;6.27;;;3.47;;
5125;SDS011;63008;53.112;8.896;2023-03-12T03:23:34;6.53;;;3.43;;
5125;SDS011;63008;53.112;8.896;2023-03-12T03:25:36;12.40;;;3.93;;
5125;SDS011;63008;53.112;8.896;2023-03-12T03:27:37;6.53;;;3.83;;
5125;SDS011;63008;53.112;8.896;2023-03-12T03:29:38;6.17;;;3.93;;
5125;SDS011;63008;53.112;8.896;2023-03-12T03:31:39;11.10;;;4.00;;
5125;SDS011;63008;53.112;8.896;2023-03-12T03:33:41;5.70;;;3.67;;
5125;SDS011;63008;53.112;8.896;2023-03-12T03:35:42;13.83;;;3.60;;
5125;SDS011;63008;53.112;8.896;2023-03-12T03:37:43;6.77;;;3.73;;
5125;SDS011;63008;53.112;8.896;2023-03-12T03:39:44;7.83;;;3.80;;
5125;SDS011;63008;53.112;8.896;2023-03-12T03:41:45;8.20;;;4.17;;
5125;SDS011;63008;53.112;8.896;2023-03-12T03:43:46;5.60;;;4.00;;
5125;SDS011;63008;53.112;8.896;2023-03-12T03:45:47;8.13;;;4.30;;
5125;SDS011;63008;53.112;8.896;2023-03-12T03:47:49;7.20;;;4.57;;
5125;SDS011;63008;53.112;8.896;2023-03-12T03:49:50;4.00;;;3.53;;
5125;SDS011;63008;53.112;8.896;2023-03-12T03:51:51;6.47;;;4.47;;
5125;SDS011;63008;53.112;8.896;2023-03-12T03:53:52;7.23;;;5.03;;
5125;SDS011;63008;53.112;8.896;2023-03-12T03:55:53;12.73;;;5.63;;
5125;SDS011;63008;53.112;8.896;2023-03-12T03:57:54;9.60;;;6.27;;
5125;SDS011;63008;53.112;8.896;2023-03-12T03:59:55;9.20;;;5.80;;
5125;SDS011;63008;53.112;8.896;2023-03-12T04:01:58;6.80;;;4.63;;
5125;SDS011;63008;53.112;8.896;2023-03-12T04:03:59;8.47;;;5.40;;
5125;SDS011;63008;53.112;8.896;2023-03-12T04:06:01;7.60;;;5.33;;
5125;SDS011;63008;53.112;8.896;2023-03-12T04:08:03;6.37;;;5.00;;
5125;SDS011;63008;53.112;8.896;2023-03-12T04:10:05;10.30;;;5.70;;
5125;SDS011;63008;53.112;8.896;2023-03-12T04:12:06;6.17;;;5.10;;
5125;SDS011;63008;53.112;8.896;2023-03-12T04:14:07;11.33;;;6.10;;
5125;SDS011;63008;53.112;8.896;2023-03-12T04:16:09;6.70;;;5.80;;
5125;SDS011;63008;53.112;8.896;2023-03-12T04:18:11;6.03;;;5.43;;
5125;SDS011;63008;53.112;8.896;2023-03-12T04:20:12;5.53;;;5.03;;
5125;SDS011;63008;53.112;8.896;2023-03-12T04:22:13;5.30;;;4.07;;
5125;SDS011;63008;53.112;8.896;2023-03-12T04:24:15;6.70;;;3.90;;
5125;SDS011;63008;53.112;8.896;2023-03-12T04:26:16;4.07;;;3.73;;
5125;SDS011;63008;53.112;8.896;2023-03-12T04:28:17;8.03;;;3.70;;
5125;SDS011;63008;53.112;8.896;2023-03-12T04:30:18;5.50;;;3.13;;
5125;SDS011;63008;53.112;8.896;2023-03-12T04:32:19;8.60;;;3.13;;
5125;SDS011;63008;53.112;8.896;2023-03-12T04:34:20;5.50;;;3.23;;
5125;SDS011;63008;53.112;8.896;2023-03-12T04:36:21;6.07;;;3.40;;
5125;SDS011;63008;53.112;8.896;2023-03-12T04:38:23;3.53;;;3.23;;
5125;SDS011;63008;53.112;8.896;2023-03-12T04:40:25;6.10;;;3.63;;
5125;SDS011;63008;53.112;8.896;2023-03-12T04:42:26;3.77;;;3.50;;
5125;SDS011;63008;53.112;8.896;2023-03-12T04:44:27;6.00;;;3.03;;
5125;SDS011;63008;53.112;8.896;2023-03-12T04:46:28;6.03;;;3.33;;
5125;SDS011;63008;53.112;8.896;2023-03-12T04:48:29;4.73;;;3.80;;
5125;SDS011;63008;53.112;8.896;2023-03-12T04:50:30;5.87;;;3.80;;
5125;SDS011;63008;53.112;8.896;2023-03-12T04:52:31;4.10;;;3.70;;
5125;SDS011;63008;53.112;8.896;2023-03-12T04:54:32;3.63;;;3.20;;
5125;SDS011;63008;53.112;8.896;2023-03-12T04:56:33;9.83;;;3.40;;
5125;SDS011;63008;53.112;8.896;2023-03-12T04:58:34;6.80;;;3.50;;
5125;SDS011;63008;53.112;8.896;2023-03-12T05:00:37;8.83;;;3.63;;
5125;SDS011;63008;53.112;8.896;2023-03-12T05:02:39;4.00;;;3.60;;
5125;SDS011;63008;53.112;8.896;2023-03-12T05:04:40;4.80;;;3.50;;
5125;SDS011;63008;53.112;8.896;2023-03-12T05:06:41;5.50;;;3.50;;
5125;SDS011;63008;53.112;8.896;2023-03-12T05:08:42;3.60;;;3.30;;
5125;SDS011;63008;53.112;8.896;2023-03-12T05:10:43;6.90;;;3.77;;
5125;SDS011;63008;53.112;8.896;2023-03-12T05:12:45;4.77;;;3.80;;
5125;SDS011;63008;53.112;8.896;2023-03-12T05:14:46;6.03;;;3.27;;
5125;SDS011;63008;53.112;8.896;2023-03-12T05:16:47;4.30;;;3.90;;
5125;SDS011;63008;53.112;8.896;2023-03-12T05:18:48;3.70;;;3.40;;
5125;SDS011;63008;53.112;8.896;2023-03-12T05:21:05;3.67;;;3.37;;
5125;SDS011;63008;53.112;8.896;2023-03-12T05:23:07;6.17;;;3.93;;
5125;SDS011;63008;53.112;8.896;2023-03-12T05:25:08;6.47;;;4.30;;
5125;SDS011;63008;53.112;8.896;2023-03-12T05:27:10;5.40;;;4.17;;
5125;SDS011;63008;53.112;8.896;2023-03-12T05:29:11;4.10;;;3.57;;
5125;SDS011;63008;53.112;8.896;2023-03-12T05:31:16;4.37;;;3.53;;
5125;SDS011;63008;53.112;8.896;2023-03-12T05:33:18;4.20;;;3.57;;
5125;SDS011;63008;53.112;8.896;2023-03-12T05:35:19;4.80;;;3.97;;
5125;SDS011;63008;53.112;8.896;2023-03-12T05:37:20;3.17;;;2.87;;
5125;SDS011;63008;53.112;8.896;2023-03-12T05:39:21;5.40;;;3.50;;
5125;SDS011;63008;53.112;8.896;2023-03-12T05:41:26;4.67;;;3.53;;
5125;SDS011;63008;53.112;8.896;2023-03-12T05:43:28;4.93;;;3.53;;
5125;SDS011;63008;53.112;8.896;2023-03-12T05:45:29;5.73;;;3.77;;
5125;SDS011;63008;53.112;8.896;2023-03-12T05:47:31;6.60;;;3.33;;
5125;SDS011;63008;53.112;8.896;2023-03-12T05:49:32;6.50;;;3.60;;
5125;SDS011;63008;53.112;8.896;2023-03-12T05:51:34;4.33;;;3.60;;
5125;SDS011;63008;53.112;8.896;2023-03-12T05:53:35;6.57;;;3.33;;
5125;SDS011;63008;53.112;8.896;2023-03-12T05:55:36;4.93;;;3.70;;
5125;SDS011;63008;53.112;8.896;2023-03-12T05:57:39;4.60;;;3.67;;
5125;SDS011;63008;53.112;8.896;2023-03-12T05:59:40;5.23;;;3.53;;
5125;SDS011;63008;53.112;8.896;2023-03-12T06:01:41;5.53;;;3.80;;
5125;SDS011;63008;53.112;8.896;2023-03-12T06:03:42;5.83;;;3.20;;
5125;SDS011;63008;53.112;8.896;2023-03-12T06:05:43;4.97;;;3.80;;
5125;SDS011;63008;53.112;8.896;2023-03-12T06:07:48;3.57;;;3.23;;
5125;SDS011;63008;53.112;8.896;2023-03-12T06:09:49;7.17;;;3.53;;
5125;SDS011;63008;53.112;8.896;2023-03-12T06:11:50;3.60;;;3.23;;
5125;SDS011;63008;53.112;8.896;2023-03-12T06:13:51;7.13;;;4.07;;
5125;SDS011;63008;53.112;8.896;2023-03-12T06:15:52;6.83;;;3.63;;
5125;SDS011;63008;53.112;8.896;2023-03-12T06:17:53;5.93;;;3.80;;
5125;SDS011;63008;53.112;8.896;2023-03-12T06:19:54;6.70;;;3.70;;
5125;SDS011;63008;53.112;8.896;2023-03-12T06:21:55;7.10;;;3.67;;
5125;SDS011;63008;53.112;8.896;2023-03-12T06:23:56;4.63;;;3.53;;
5125;SDS011;63008;53.112;8.896;2023-03-12T06:25:58;8.87;;;4.07;;
5125;SDS011;63008;53.112;8.896;2023-03-12T06:27:59;4.17;;;3.77;;
5125;SDS011;63008;53.112;8.896;2023-03-12T06:30:00;5.77;;;3.23;;
5125;SDS011;63008;53.112;8.896;2023-03-12T06:32:01;3.97;;;3.67;;
5125;SDS011;63008;53.112;8.896;2023-03-12T06:34:02;4.80;;;3.63;;
5125;SDS011;63008;53.112;8.896;2023-03-12T06:36:04;3.73;;;3.33;;
5125;SDS011;63008;53.112;8.896;2023-03-12T06:38:07;9.57;;;4.60;;
5125;SDS011;63008;53.112;8.896;2023-03-12T06:40:08;8.27;;;3.50;;
5125;SDS011;63008;53.112;8.896;2023-03-12T06:42:10;6.53;;;3.77;;
5125;SDS011;63008;53.112;8.896;2023-03-12T06:44:12;8.87;;;4.23;;
5125;SDS011;63008;53.112;8.896;2023-03-12T06:46:14;7.47;;;4.10;;
5125;SDS011;63008;53.112;8.896;2023-03-12T06:48:18;4.37;;;3.33;;
5125;SDS011;63008;53.112;8.896;2023-03-12T06:50:19;5.77;;;3.20;;
5125;SDS011;63008;53.112;8.896;2023-03-12T06:52:20;8.37;;;3.73;;
5125;SDS011;63008;53.112;8.896;2023-03-12T06:54:21;5.77;;;3.50;;
5125;SDS011;63008;53.112;8.896;2023-03-12T06:56:22;6.47;;;4.03;;
5125;SDS011;63008;53.112;8.896;2023-03-12T06:58:23;5.50;;;3.97;;
5125;SDS011;63008;53.112;8.896;2023-03-12T07:00:24;8.53;;;3.80;;
5125;SDS011;63008;53.112;8.896;2023-03-12T07:02:25;5.27;;;4.43;;
5125;SDS011;63008;53.112;8.896;2023-03-12T07:04:26;8.13;;;4.47;;
5125;SDS011;63008;53.112;8.896;2023-03-12T07:06:27;5.70;;;3.47;;
5125;SDS011;63008;53.112;8.896;2023-03-12T07:08:28;4.80;;;3.23;;
5125;SDS011;63008;53.112;8.896;2023-03-12T07:10:32;11.93;;;4.23;;
5125;SDS011;63008;53.112;8.896;2023-03-12T07:12:33;12.07;;;4.30;;
5125;SDS011;63008;53.112;8.896;2023-03-12T07:14:33;5.60;;;3.33;;
5125;SDS011;63008;53.112;8.896;2023-03-12T07:16:34;5.40;;;4.13;;
5125;SDS011;63008;53.112;8.896;2023-03-12T07:18:36;6.73;;;3.93;;
5125;SDS011;63008;53.112;8.896;2023-03-12T07:20:38;5.03;;;3.37;;
5125;SDS011;63008;53.112;8.896;2023-03-12T07:22:41;4.43;;;3.50;;
5125;SDS011;63008;53.112;8.896;2023-03-12T07:24:42;5.63;;;3.60;;
5125;SDS011;63008;53.112;8.896;2023-03-12T07:26:43;7.20;;;3.40;;
5125;SDS011;63008;53.112;8.896;2023-03-12T07:28:45;4.43;;;3.30;;
5125;SDS011;63008;53.112;8.896;2023-03-12T07:30:46;3.83;;;3.33;;
5125;SDS011;63008;53.112;8.896;2023-03-12T07:32:50;5.13;;;4.03;;
5125;SDS011;63008;53.112;8.896;2023-03-12T07:34:51;3.20;;;2.90;;
5125;SDS011;63008;53.112;8.896;2023-03-12T07:36:53;11.40;;;4.07;;
5125;SDS011;63008;53.112;8.896;2023-03-12T07:38:54;4.40;;;3.37;;
5125;SDS011;63008;53.112;8.896;2023-03-12T07:40:56;5.33;;;3.87;;
5125;SDS011;63008;53.112;8.896;2023-03-12T07:42:58;5.30;;;3.60;;
5125;SDS011;63008;53.112;8.896;2023-03-12T07:44:59;6.80;;;3.53;;
5125;SDS011;63008;53.112;8.896;2023-03-12T07:47:00;4.67;;;3.80;;
5125;SDS011;63008;53.112;8.896;2023-03-12T07:49:00;8.00;;;3.50;;
5125;SDS011;63008;53.112;8.896;2023-03-12T07:51:02;5.57;;;4.10;;
5125;SDS011;63008;53.112;8.896;2023-03-12T07:53:03;7.90;;;4.03;;
5125;SDS011;63008;53.112;8.896;2023-03-12T07:55:05;8.60;;;3.80;;
5125;SDS011;63008;53.112;8.896;2023-03-12T07:57:07;7.03;;;4.17;;
5125;SDS011;63008;53.112;8.896;2023-03-12T07:59:08;5.30;;;3.70;;
5125;SDS011;63008;53.112;8.896;2023-03-12T08:01:09;6.93;;;4.60;;
5125;SDS011;63008;53.112;8.896;2023-03-12T08:03:10;8.37;;;3.43;;
5125;SDS011;63008;53.112;8.896;2023-03-12T08:05:11;3.87;;;3.50;;
5125;SDS011;63008;53.112;8.896;2023-03-12T08:07:13;5.63;;;3.47;;
5125;SDS011;63008;53.112;8.896;2023-03-12T08:09:14;6.60;;;3.60;;
5125;SDS011;63008;53.112;8.896;2023-03-12T08:11:15;5.30;;;3.30;;
5125;SDS011;63008;53.112;8.896;2023-03-12T08:13:16;4.07;;;2.70;;
5125;SDS011;63008;53.112;8.896;2023-03-12T08:15:17;6.07;;;3.37;;
5125;SDS011;63008;53.112;8.896;2023-03-12T08:17:19;6.00;;;3.50;;
5125;SDS011;63008;53.112;8.896;2023-03-12T08:19:20;6.57;;;3.67;;
5125;SDS011;63008;53.112;8.896;2023-03-12T08:21:22;6.43;;;3.40;;
5125;SDS011;63008;53.112;8.896;2023-03-12T08:23:23;6.47;;;3.47;;
5125;SDS011;63008;53.112;8.896;2023-03-12T08:25:26;5.07;;;3.60;;
5125;SDS011;63008;53.112;8.896;2023-03-12T08:27:28;10.90;;;4.13;;
5125;SDS011;63008;53.112;8.896;2023-03-12T08:29:29;5.37;;;3.30;;
5125;SDS011;63008;53.112;8.896;2023-03-12T08:31:30;12.10;;;4.60;;
5125;SDS011;63008;53.112;8.896;2023-03-12T08:33:31;4.97;;;3.80;;
5125;SDS011;63008;53.112;8.896;2023-03-12T08:35:32;4.10;;;3.70;;
5125;SDS011;63008;53.112;8.896;2023-03-12T08:37:33;8.07;;;3.50;;
5125;SDS011;63008;53.112;8.896;2023-03-12T08:39:34;4.87;;;3.70;;
5125;SDS011;63008;53.112;8.896;2023-03-12T08:41:35;7.63;;;4.30;;
5125;SDS011;63008;53.112;8.896;2023-03-12T08:43:36;5.10;;;3.50;;
5125;SDS011;63008;53.112;8.896;2023-03-12T08:45:37;3.63;;;3.33;;
5125;SDS011;63008;53.112;8.896;2023-03-12T08:47:41;8.00;;;3.27;;
5125;SDS011;63008;53.112;8.896;2023-03-12T08:49:43;6.53;;;3.40;;
5125;SDS011;63008;53.112;8.896;2023-03-12T08:51:43;5.27;;;2.90;;
5125;SDS011;63008;53.112;8.896;2023-03-12T08:53:44;8.47;;;2.97;;
5125;SDS011;63008;53.112;8.896;2023-03-12T08:55:45;4.77;;;2.77;;
5125;SDS011;63008;53.112;8.896;2023-03-12T08:57:48;5.10;;;3.67;;
5125;SDS011;63008;53.112;8.896;2023-03-12T08:59:49;6.83;;;3.80;;
5125;SDS011;63008;53.112;8.896;2023-03-12T09:01:50;7.23;;;3.50;;
5125;SDS011;63008;53.112;8.896;2023-03-12T09:03:51;8.23;;;3.37;;
5125;SDS011;63008;53.112;8.896;2023-03-12T09:06:02;4.63;;;3.27;;
5125;SDS011;63008;53.112;8.896;2023-03-12T09:08:09;8.63;;;3.50;;
5125;SDS011;63008;53.112;8.896;2023-03-12T09:10:14;3.97;;;3.40;;
5125;SDS011;63008;53.112;8.896;2023-03-12T09:12:22;4.00;;;3.57;;
5125;SDS011;63008;53.112;8.896;2023-03-12T09:14:27;4.60;;;3.10;;
5125;SDS011;63008;53.112;8.896;2023-03-12T09:16:28;3.37;;;3.10;;
5125;SDS011;63008;53.112;8.896;2023-03-12T09:18:42;3.37;;;3.07;;
5125;SDS011;63008;53.112;8.896;2023-03-12T09:20:43;6.90;;;2.80;;
5125;SDS011;63008;53.112;8.896;2023-03-12T09:22:48;7.30;;;2.80;;
5125;SDS011;63008;53.112;8.896;2023-03-12T09:24:49;9.10;;;3.10;;
5125;SDS011;63008;53.112;8.896;2023-03-12T09:26:53;4.63;;;3.27;;
5125;SDS011;63008;53.112;8.896;2023-03-12T09:28:54;4.13;;;3.07;;
5125;SDS011;63008;53.112;8.896;2023-03-12T09:30:59;6.60;;;3.27;;
5125;SDS011;63008;53.112;8.896;2023-03-12T09:33:01;12.10;;;2.70;;
5125;SDS011;63008;53.112;8.896;2023-03-12T09:35:02;5.43;;;3.03;;
5125;SDS011;63008;53.112;8.896;2023-03-12T09:37:04;3.13;;;2.67;;
5125;SDS011;63008;53.112;8.896;2023-03-12T09:39:05;4.10;;;3.20;;
5125;SDS011;63008;53.112;8.896;2023-03-12T09:41:12;9.47;;;3.80;;
5125;SDS011;63008;53.112;8.896;2023-03-12T09:43:20;6.00;;;2.90;;
5125;SDS011;63008;53.112;8.896;2023-03-12T09:45:35;4.40;;;2.47;;
5125;SDS011;63008;53.112;8.896;2023-03-12T09:50:16;5.93;;;3.40;;
5125;SDS011;63008;53.112;8.896;2023-03-12T09:52:29;3.57;;;2.70;;
5125;SDS011;63008;53.112;8.896;2023-03-12T09:54:43;3.73;;;2.83;;
5125;SDS011;63008;53.112;8.896;2023-03-12T09:56:51;9.93;;;3.40;;
5125;SDS011;63008;53.112;8.896;2023-03-12T09:58:55;4.60;;;2.57;;
5125;SDS011;63008;53.112;8.896;2023-03-12T10:01:01;4.93;;;2.53;;
5125;SDS011;63008;53.112;8.896;2023-03-12T10:03:22;3.97;;;2.60;;
5125;SDS011;63008;53.112;8.896;2023-03-12T10:05:45;3.33;;;2.93;;
5125;SDS011;63008;53.112;8.896;2023-03-12T10:07:59;2.70;;;2.50;;
5125;SDS011;63008;53.112;8.896;2023-03-12T10:10:11;6.40;;;2.80;;
5125;SDS011;63008;53.112;8.896;2023-03-12T10:17:25;3.07;;;2.50;;
5125;SDS011;63008;53.112;8.896;2023-03-12T10:22:09;3.00;;;2.80;;
5125;SDS011;63008;53.112;8.896;2023-03-12T10:24:18;5.87;;;2.50;;
5125;SDS011;63008;53.112;8.896;2023-03-12T10:26:39;4.43;;;2.40;;
5125;SDS011;63008;53.112;8.896;2023-03-12T10:28:44;3.43;;;2.40;;
5125;SDS011;63008;53.112;8.896;2023-03-12T10:30:53;6.13;;;2.77;;
5125;SDS011;63008;53.112;8.896;2023-03-12T10:32:58;3.20;;;2.93;;
5125;SDS011;63008;53.112;8.896;2023-03-12T10:35:13;3.00;;;2.53;;
5125;SDS011;63008;53.112;8.896;2023-03-12T10:37:21;6.63;;;2.70;;
5125;SDS011;63008;53.112;8.896;2023-03-12T10:39:24;3.27;;;2.80;;
5125;SDS011;63008;53.112;8.896;2023-03-12T10:41:29;8.40;;;2.83;;
5125;SDS011;63008;53.112;8.896;2023-03-12T10:43:32;2.67;;;2.40;;
5125;SDS011;63008;53.112;8.896;2023-03-12T10:48:23;2.73;;;2.33;;
5125;SDS011;63008;53.112;8.896;2023-03-12T10:50:26;3.43;;;2.60;;
5125;SDS011;63008;53.112;8.896;2023-03-12T10:52:31;5.77;;;2.53;;
5125;SDS011;63008;53.112;8.896;2023-03-12T10:54:37;3.53;;;2.47;;
5125;SDS011;63008;53.112;8.896;2023-03-12T10:56:49;2.83;;;2.63;;
5125;SDS011;63008;53.112;8.896;2023-03-12T10:58:51;4.03;;;2.80;;
5125;SDS011;63008;53.112;8.896;2023-03-12T11:00:55;8.63;;;3.03;;
5125;SDS011;63008;53.112;8.896;2023-03-12T11:03:17;4.37;;;2.63;;
5125;SDS011;63008;53.112;8.896;2023-03-12T11:05:22;4.60;;;2.70;;
5125;SDS011;63008;53.112;8.896;2023-03-12T11:07:29;4.30;;;2.87;;
5125;SDS011;63008;53.112;8.896;2023-03-12T11:09:32;2.50;;;2.30;;
5125;SDS011;63008;53.112;8.896;2023-03-12T11:11:34;5.23;;;3.00;;
5125;SDS011;63008;53.112;8.896;2023-03-12T11:13:36;3.00;;;1.93;;
5125;SDS011;63008;53.112;8.896;2023-03-12T11:16:01;5.13;;;2.37;;
5125;SDS011;63008;53.112;8.896;2023-03-12T11:18:28;2.67;;;2.43;;
5125;SDS011;63008;53.112;8.896;2023-03-12T11:20:34;3.03;;;2.33;;
5125;SDS011;63008;53.112;8.896;2023-03-12T11:22:35;4.33;;;2.30;;
5125;SDS011;63008;53.112;8.896;2023-03-12T11:24:39;3.23;;;2.53;;
5125;SDS011;63008;53.112;8.896;2023-03-12T11:31:30;4.83;;;2.27;;
5125;SDS011;63008;53.112;8.896;2023-03-12T11:33:34;2.03;;;1.93;;
5125;SDS011;63008;53.112;8.896;2023-03-12T11:35:42;5.27;;;2.23;;
5125;SDS011;63008;53.112;8.896;2023-03-12T11:38:00;4.57;;;2.30;;
5125;SDS011;63008;53.112;8.896;2023-03-12T11:40:19;4.67;;;2.53;;
5125;SDS011;63008;53.112;8.896;2023-03-12T11:52:14;2.60;;;2.40;;
5125;SDS011;63008;53.112;8.896;2023-03-12T11:56:56;5.73;;;3.10;;
5125;SDS011;63008;53.112;8.896;2023-03-12T11:59:28;8.30;;;2.80;;
5125;SDS011;63008;53.112;8.896;2023-03-12T12:01:51;4.17;;;2.40;;
5125;SDS011;63008;53.112;8.896;2023-03-12T12:04:08;3.37;;;2.83;;
5125;SDS011;63008;53.112;8.896;2023-03-12T12:06:15;5.43;;;3.27;;
5125;SDS011;63008;53.112;8.896;2023-03-12T12:08:23;6.10;;;3.40;;
5125;SDS011;63008;53.112;8.896;2023-03-12T12:10:57;4.10;;;3.30;;
5125;SDS011;63008;53.112;8.896;2023-03-12T12:17:39;9.27;;;4.23;;
5125;SDS011;63008;53.112;8.896;2023-03-12T12:27:24;3.63;;;3.10;;
5125;SDS011;63008;53.112;8.896;2023-03-12T12:29:50;5.70;;;3.40;;
5125;SDS011;63008;53.112;8.896;2023-03-12T12:32:05;6.93;;;3.70;;
5125;SDS011;63008;53.112;8.896;2023-03-12T12:36:39;6.47;;;4.20;;
5125;SDS011;63008;53.112;8.896;2023-03-12T12:38:51;8.03;;;3.60;;
5125;SDS011;63008;53.112;8.896;2023-03-12T12:41:11;6.53;;;4.50;;
5125;SDS011;63008;53.112;8.896;2023-03-12T12:45:37;8.17;;;5.70;;
5125;SDS011;63008;53.112;8.896;2023-03-12T12:47:47;7.40;;;4.77;;
5125;SDS011;63008;53.112;8.896;2023-03-12T12:49:59;9.43;;;5.03;;
5125;SDS011;63008;53.112;8.896;2023-03-12T12:52:03;14.47;;;5.17;;
5125;SDS011;63008;53.112;8.896;2023-03-12T12:54:53;6.63;;;5.80;;
5125;SDS011;63008;53.112;8.896;2023-03-12T12:59:01;9.67;;;6.23;;
5125;SDS011;63008;53.112;8.896;2023-03-12T13:01:13;10.70;;;5.80;;
5125;SDS011;63008;53.112;8.896;2023-03-12T13:03:17;8.27;;;5.40;;
5125;SDS011;63008;53.112;8.896;2023-03-12T13:05:24;7.37;;;6.13;;
5125;SDS011;63008;53.112;8.896;2023-03-12T13:07:29;6.73;;;5.90;;
5125;SDS011;63008;53.112;8.896;2023-03-12T13:09:40;6.90;;;6.07;;
5125;SDS011;63008;53.112;8.896;2023-03-12T13:11:44;7.27;;;6.40;;
5125;SDS011;63008;53.112;8.896;2023-03-12T13:13:49;7.33;;;5.60;;
5125;SDS011;63008;53.112;8.896;2023-03-12T13:16:18;7.07;;;6.37;;
5125;SDS011;63008;53.112;8.896;2023-03-12T13:18:24;8.47;;;6.77;;
5125;SDS011;63008;53.112;8.896;2023-03-12T13:20:30;8.87;;;6.80;;
5125;SDS011;63008;53.112;8.896;2023-03-12T13:24:57;10.17;;;7.60;;
5125;SDS011;63008;53.112;8.896;2023-03-12T13:27:28;8.53;;;6.93;;
5125;SDS011;63008;53.112;8.896;2023-03-12T13:29:35;7.80;;;6.70;;
5125;SDS011;63008;53.112;8.896;2023-03-12T13:31:38;8.57;;;7.63;;
5125;SDS011;63008;53.112;8.896;2023-03-12T13:33:42;12.83;;;8.33;;
5125;SDS011;63008;53.112;8.896;2023-03-12T13:36:10;10.70;;;7.80;;
5125;SDS011;63008;53.112;8.896;2023-03-12T13:38:36;7.73;;;6.90;;